Gwinner, North Dakota
Current Conditions -  °F | °C
As of 7:35 PM on Friday 24 Oct 2014 (Local Time) from KGWR Reporting Station
Clear Clear  
Wind Chill: 64°   Ceiling: Unl
Heat Index: 64°   Visibility: 10mi
Dew Point: 37°   Wind: 10mph
Humidity: 37%   Direction: 300°WNW
Pressure: 29.92"   Gusts: NA
Location:  46.23°N, 97.66°W
Report Text: KGWR 250035Z AUTO 30009KT 10SM CLR 18/03 A2992 RMK A01 P000
Loading
Personal Weather Stations






























Interactive Weather Map
Tropical Storm Tracking
New forecast layout! Learn more

10-Day Weather Forecast

Advertisements
Track Severe Weather on mobile